Aviation Digital Data Service (ADDS)

Output produced by METARs form (1021 UTC 25 June 2017)
found at http://aviationweather.gov/adds/metars/
 
KMPV 250533Z 2506/2606 27005KT P6SM SKC 
     TEMPO 2510/2512 3SM BR SCT005 
     FM251800 26006KT P6SM VCSH BKN050 
     FM260200 VRB04KT P6SM SCT050